createdAt,value
2023-10-15T00:04:24.516Z,6.78
2023-10-15T00:09:28.192Z,6.77
2023-10-15T00:14:32.610Z,6.77
2023-10-15T00:19:36.623Z,6.77
2023-10-15T00:24:41.912Z,6.77
2023-10-15T00:29:45.807Z,6.75
2023-10-15T00:34:51.168Z,6.74
2023-10-15T00:39:55.812Z,6.75
2023-10-15T00:44:59.248Z,6.75
2023-10-15T00:50:09.307Z,6.75
2023-10-15T00:55:18.231Z,6.79
2023-10-15T01:00:40.226Z,6.82
2023-10-15T01:05:54.944Z,6.82
2023-10-15T01:11:21.855Z,6.76
2023-10-15T01:16:29.543Z,6.69
2023-10-15T01:21:34.082Z,6.62
2023-10-15T01:26:40.730Z,6.56
2023-10-15T01:31:52.580Z,6.49
2023-10-15T01:36:58.778Z,6.43
2023-10-15T01:42:06.433Z,6.35
2023-10-15T01:47:10.073Z,6.31
2023-10-15T01:52:22.607Z,6.25
2023-10-15T01:57:26.280Z,6.19
2023-10-15T02:02:31.077Z,6.22
2023-10-15T02:07:36.672Z,6.26
2023-10-15T02:12:39.957Z,6.26
2023-10-15T02:17:44.978Z,6.23
2023-10-15T02:22:48.432Z,6.22
2023-10-15T02:27:52.069Z,6.22
2023-10-15T02:32:55.384Z,6.20
2023-10-15T02:38:01.052Z,6.19
2023-10-15T02:43:07.975Z,6.21
2023-10-15T02:48:21.373Z,6.20
2023-10-15T02:53:25.138Z,6.20
2023-10-15T02:58:30.043Z,6.20
2023-10-15T03:03:36.122Z,6.16
2023-10-15T03:08:49.228Z,6.11
2023-10-15T03:13:56.868Z,6.08
2023-10-15T03:19:19.471Z,6.05
2023-10-15T03:24:24.189Z,6.06
2023-10-15T03:29:28.267Z,6.04
2023-10-15T03:34:37.524Z,6.01
2023-10-15T03:39:41.078Z,5.99
2023-10-15T03:44:48.631Z,5.97
2023-10-15T03:49:53.151Z,5.96
2023-10-15T03:54:57.493Z,5.95
2023-10-15T04:00:02.003Z,5.95
2023-10-15T04:05:10.178Z,5.92
2023-10-15T04:10:14.728Z,5.89
2023-10-15T04:15:18.980Z,5.88
2023-10-15T04:20:43.081Z,5.88
2023-10-15T04:25:49.243Z,5.86
2023-10-15T04:30:53.424Z,5.83
2023-10-15T04:35:58.026Z,5.92
2023-10-15T04:41:04.962Z,6.08
2023-10-15T04:46:09.394Z,6.26
2023-10-15T04:51:14.605Z,6.44
2023-10-15T04:56:18.552Z,6.59
2023-10-15T05:01:22.012Z,6.72
2023-10-15T05:06:25.939Z,6.82
2023-10-15T05:11:29.789Z,6.93
2023-10-15T05:16:33.188Z,7.04
2023-10-15T05:21:36.498Z,7.14
2023-10-15T05:26:39.867Z,7.23
2023-10-15T05:31:46.392Z,7.32
2023-10-15T05:36:50.131Z,7.41
2023-10-15T05:41:53.795Z,7.45
2023-10-15T05:46:57.329Z,7.51
2023-10-15T05:52:01.235Z,7.60
2023-10-15T05:57:07.394Z,7.69
2023-10-15T06:02:10.790Z,7.77
2023-10-15T06:07:17.505Z,7.87
2023-10-15T06:12:20.916Z,8.00
2023-10-15T06:17:24.399Z,8.18
2023-10-15T06:22:27.952Z,8.40
2023-10-15T06:27:31.311Z,8.67
2023-10-15T06:32:35.883Z,9.34
2023-10-15T06:37:40.605Z,10.80
2023-10-15T06:42:45.282Z,12.20
2023-10-15T06:47:50.781Z,13.15
2023-10-15T06:52:54.791Z,14.27
2023-10-15T06:57:59.460Z,14.79
2023-10-15T07:03:02.943Z,14.82
2023-10-15T07:08:07.656Z,14.32
2023-10-15T07:13:11.769Z,13.60
2023-10-15T07:18:15.238Z,12.99
2023-10-15T07:23:18.654Z,12.54
2023-10-15T07:28:23.837Z,12.24
2023-10-15T07:33:27.231Z,12.03
2023-10-15T07:38:30.702Z,12.09
2023-10-15T07:43:34.071Z,12.16
2023-10-15T07:48:37.889Z,12.52
2023-10-15T07:53:41.267Z,12.77
2023-10-15T07:58:44.766Z,12.76
2023-10-15T08:03:48.351Z,12.67
2023-10-15T08:08:52.191Z,12.52
2023-10-15T08:13:55.655Z,12.76
2023-10-15T08:19:00.561Z,13.12
2023-10-15T08:24:05.723Z,12.83
2023-10-15T08:29:11.771Z,12.99
2023-10-15T08:34:16.530Z,13.08
2023-10-15T08:39:20.302Z,13.39
2023-10-15T08:44:26.416Z,13.57
2023-10-15T08:49:39.202Z,13.66
2023-10-15T08:54:47.149Z,14.43
2023-10-15T08:59:55.117Z,15.07
2023-10-15T09:04:58.605Z,15.65
2023-10-15T09:10:02.461Z,15.73
2023-10-15T09:15:17.569Z,15.29
2023-10-15T09:20:28.072Z,14.56
2023-10-15T09:25:31.745Z,13.98
2023-10-15T09:30:35.108Z,13.64
2023-10-15T09:35:38.480Z,13.55
2023-10-15T09:40:45.278Z,13.55
2023-10-15T09:45:48.745Z,13.59
2023-10-15T09:50:55.130Z,13.63
2023-10-15T09:55:59.819Z,13.61
2023-10-15T10:01:10.954Z,13.54
2023-10-15T10:06:50.141Z,13.36
2023-10-15T10:12:08.556Z,13.25
2023-10-15T10:17:14.009Z,13.20
2023-10-15T10:22:36.086Z,13.22
2023-10-15T10:27:43.400Z,13.12
2023-10-15T10:32:46.834Z,13.14
2023-10-15T10:38:10.626Z,13.18
2023-10-15T10:43:28.676Z,13.24
2023-10-15T10:48:40.780Z,13.26
2023-10-15T10:53:59.335Z,13.27
2023-10-15T10:59:03.008Z,13.35
2023-10-15T11:04:11.887Z,13.17
2023-10-15T11:09:21.191Z,12.92
2023-10-15T11:14:31.360Z,12.71
2023-10-15T11:19:34.909Z,12.71
2023-10-15T11:24:39.235Z,12.70
2023-10-15T11:29:42.786Z,12.59
2023-10-15T11:34:46.535Z,12.66
2023-10-15T11:39:52.692Z,12.68
2023-10-15T11:44:58.214Z,12.67
2023-10-15T11:50:01.726Z,12.78
2023-10-15T11:55:07.633Z,13.05
2023-10-15T12:00:11.858Z,13.20
2023-10-15T12:05:15.356Z,13.08
2023-10-15T12:10:18.664Z,12.97
2023-10-15T12:15:22.072Z,12.89
2023-10-15T12:20:26.576Z,12.96
2023-10-15T12:25:30.034Z,12.89
2023-10-15T12:30:34.123Z,12.74
2023-10-15T12:35:38.089Z,12.70
2023-10-15T12:40:41.737Z,12.68
2023-10-15T12:45:50.575Z,12.67
2023-10-15T12:50:54.212Z,12.59
2023-10-15T12:55:58.367Z,12.48
2023-10-15T13:01:02.226Z,12.54
2023-10-15T13:06:05.726Z,12.55
2023-10-15T13:11:09.587Z,12.38
2023-10-15T13:16:13.117Z,12.20
2023-10-15T13:21:16.785Z,12.08
2023-10-15T13:26:20.274Z,11.94
2023-10-15T13:31:24.839Z,11.76
2023-10-15T13:36:29.280Z,11.71
2023-10-15T13:41:32.659Z,11.70
2023-10-15T13:46:37.288Z,11.59
2023-10-15T13:51:41.654Z,11.38
2023-10-15T13:56:45.283Z,11.27
2023-10-15T14:01:48.919Z,11.34
2023-10-15T14:06:53.539Z,11.40
2023-10-15T14:11:57.165Z,11.33
2023-10-15T14:17:00.680Z,11.31
2023-10-15T14:22:05.857Z,11.31
2023-10-15T14:27:09.211Z,11.20
2023-10-15T14:32:13.631Z,11.02
2023-10-15T14:37:17.769Z,10.79
2023-10-15T14:42:22.013Z,10.53
2023-10-15T14:47:25.537Z,10.28
2023-10-15T14:52:29.150Z,10.07
2023-10-15T14:57:33.539Z,9.90
2023-10-15T15:02:37.273Z,9.77
2023-10-15T15:07:44.221Z,9.68
2023-10-15T15:12:47.735Z,9.55
2023-10-15T15:17:51.389Z,9.46
2023-10-15T15:22:56.372Z,9.29
2023-10-15T15:27:59.732Z,9.07
2023-10-15T15:33:03.258Z,8.85
2023-10-15T15:38:07.834Z,8.62
2023-10-15T15:43:11.311Z,8.40
2023-10-15T15:48:14.669Z,8.18
2023-10-15T15:53:18.181Z,7.94
2023-10-15T15:58:21.573Z,7.73
2023-10-15T16:03:25.361Z,7.55
2023-10-15T16:08:31.489Z,7.42
2023-10-15T16:13:34.832Z,7.29
2023-10-15T16:18:38.235Z,7.19
2023-10-15T16:23:41.563Z,7.14
2023-10-15T16:28:45.445Z,7.11
2023-10-15T16:33:48.778Z,7.09
2023-10-15T16:38:52.289Z,7.07
2023-10-15T16:43:56.771Z,7.07
2023-10-15T16:49:00.500Z,7.05
2023-10-15T16:54:03.957Z,7.02
2023-10-15T16:59:07.626Z,6.98
2023-10-15T17:04:11.388Z,6.94
2023-10-15T17:09:14.827Z,6.92
2023-10-15T17:14:18.161Z,6.94
2023-10-15T17:19:21.536Z,7.01
2023-10-15T17:24:24.867Z,7.15
2023-10-15T17:29:28.446Z,7.32
2023-10-15T17:34:32.840Z,7.49
2023-10-15T17:39:36.344Z,7.65
2023-10-15T17:44:39.711Z,7.73
2023-10-15T17:49:43.424Z,7.74
2023-10-15T17:54:46.984Z,7.73
2023-10-15T17:59:50.442Z,7.76
2023-10-15T18:04:55.698Z,7.84
2023-10-15T18:09:59.156Z,7.94
2023-10-15T18:15:02.696Z,8.04
2023-10-15T18:20:07.335Z,8.15
2023-10-15T18:25:10.674Z,8.25
2023-10-15T18:30:14.279Z,8.35
2023-10-15T18:35:18.158Z,8.42
2023-10-15T18:40:21.552Z,8.46
2023-10-15T18:45:25.060Z,8.46
2023-10-15T18:50:28.756Z,8.42
2023-10-15T18:55:32.549Z,8.39
2023-10-15T19:00:36.203Z,8.40
2023-10-15T19:05:40.254Z,8.45
2023-10-15T19:10:43.622Z,8.49
2023-10-15T19:15:58.761Z,8.53
2023-10-15T19:21:02.234Z,8.52
2023-10-15T19:26:07.517Z,8.53
2023-10-15T19:31:10.920Z,8.57
2023-10-15T19:36:15.640Z,8.54
2023-10-15T19:41:19.053Z,8.47
2023-10-15T19:46:23.156Z,8.37
2023-10-15T19:51:26.757Z,8.27
2023-10-15T19:56:30.286Z,8.16
2023-10-15T20:01:35.273Z,8.05
2023-10-15T20:06:38.806Z,7.96
2023-10-15T20:11:42.283Z,7.86
2023-10-15T20:16:45.664Z,7.76
2023-10-15T20:21:52.167Z,7.72
2023-10-15T20:26:55.565Z,7.76
2023-10-15T20:31:58.908Z,7.77
2023-10-15T20:37:02.277Z,7.77
2023-10-15T20:42:05.762Z,7.82
2023-10-15T20:47:09.715Z,7.87
2023-10-15T20:52:13.087Z,7.92
2023-10-15T20:57:16.477Z,7.96
2023-10-15T21:02:19.785Z,7.99
2023-10-15T21:07:24.170Z,8.03
2023-10-15T21:12:27.612Z,8.05
2023-10-15T21:17:31.015Z,8.05
2023-10-15T21:22:35.053Z,8.06
2023-10-15T21:27:39.438Z,8.06
2023-10-15T21:32:42.906Z,8.05
2023-10-15T21:37:46.562Z,8.02
2023-10-15T21:42:50.039Z,7.98
2023-10-15T21:47:53.532Z,7.92
2023-10-15T21:52:58.180Z,7.88
2023-10-15T21:58:02.028Z,7.83
2023-10-15T22:03:05.913Z,7.79
2023-10-15T22:08:11.237Z,7.75
2023-10-15T22:13:19.811Z,7.71
2023-10-15T22:18:28.663Z,7.64
2023-10-15T22:23:32.037Z,7.57
2023-10-15T22:28:36.058Z,7.47
2023-10-15T22:33:39.350Z,7.34
2023-10-15T22:38:43.022Z,7.17
2023-10-15T22:43:46.275Z,7.03
2023-10-15T22:48:50.858Z,6.89
2023-10-15T22:53:54.253Z,6.78
2023-10-15T22:58:57.645Z,6.74
2023-10-15T23:04:01.181Z,6.76
2023-10-15T23:09:05.007Z,6.80
2023-10-15T23:14:11.890Z,6.82
2023-10-15T23:19:17.171Z,6.86
2023-10-15T23:24:20.887Z,6.90
2023-10-15T23:29:26.502Z,6.94
2023-10-15T23:34:29.904Z,6.96
2023-10-15T23:39:33.343Z,6.98
2023-10-15T23:44:37.972Z,6.99
2023-10-15T23:49:41.355Z,7.01
2023-10-15T23:54:52.536Z,7.01
2023-10-15T23:59:56.720Z,6.99
